Time;durP1;ratioP1;P1;durP2;ratioP2;P2;SDS_P1;SDS_P2;PMS_P1;PMS_P2;Temp;Humidity;BMP_temperature;BMP_pressure;BME280_temperature;BME280_humidity;BME280_pressure;Samples;Min_cycle;Max_cycle;Signal;HPM_P1;HPM_P2
2024/03/09 00:00:42;;;;;;;0.77;0.77;;;;;;;;;;5028630;28;20224;-78
2024/03/09 00:03:12;;;;;;;0.30;0.30;;;;;;;;;;5022467;28;20309;-78
2024/03/09 00:05:40;;;;;;;0.40;0.40;;;;;;;;;;5026481;28;20653;-78
2024/03/09 00:08:07;;;;;;;0.33;0.33;;;;;;;;;;5015460;28;20228;-79
2024/03/09 00:10:34;;;;;;;0.30;0.30;;;;;;;;;;5008391;28;20220;-78
2024/03/09 00:13:02;;;;;;;0.30;0.30;;;;;;;;;;5022203;28;20240;-77
2024/03/09 00:15:29;;;;;;;0.87;0.53;;;;;;;;;;5007847;28;20264;-78
2024/03/09 00:17:56;;;;;;;1.50;0.93;;;;;;;;;;5005826;28;20230;-78
2024/03/09 00:20:34;;;;;;;2.20;0.77;;;;;;;;;;5009772;28;20228;-78
2024/03/09 00:23:03;;;;;;;3.50;1.40;;;;;;;;;;5026792;28;20219;-79
2024/03/09 00:25:33;;;;;;;2.73;1.33;;;;;;;;;;5009670;28;20236;-78
2024/03/09 00:28:00;;;;;;;1.23;1.13;;;;;;;;;;5027473;28;20277;-78
2024/03/09 00:30:30;;;;;;;0.83;0.70;;;;;;;;;;5016292;28;20232;-78
2024/03/09 00:33:01;;;;;;;0.40;0.40;;;;;;;;;;5024100;28;20239;-78
2024/03/09 00:35:29;;;;;;;0.30;0.30;;;;;;;;;;5015988;28;20856;-78
2024/03/09 00:37:58;;;;;;;0.50;0.50;;;;;;;;;;5011306;28;20255;-78
2024/03/09 00:40:28;;;;;;;0.70;0.70;;;;;;;;;;5014085;28;20228;-78
2024/03/09 00:42:57;;;;;;;0.70;0.70;;;;;;;;;;5023894;28;20313;-78
2024/03/09 00:45:23;;;;;;;0.30;0.30;;;;;;;;;;5009900;28;20232;-78
2024/03/09 00:47:50;;;;;;;0.50;0.50;;;;;;;;;;5006445;28;20715;-77
2024/03/09 00:50:17;;;;;;;0.50;0.50;;;;;;;;;;5024167;28;20311;-78
2024/03/09 00:52:44;;;;;;;4.37;1.23;;;;;;;;;;5033477;28;21078;-77
2024/03/09 00:55:14;;;;;;;0.70;0.70;;;;;;;;;;5033763;28;20242;-78
2024/03/09 00:57:45;;;;;;;0.40;0.40;;;;;;;;;;5013749;28;20250;-78
2024/03/09 01:00:16;;;;;;;0.37;0.37;;;;;;;;;;5034987;28;20234;-77
2024/03/09 01:02:47;;;;;;;0.60;0.60;;;;;;;;;;5033054;28;20224;-79
2024/03/09 01:05:19;;;;;;;1.13;1.07;;;;;;;;;;5024665;28;20224;-78
2024/03/09 01:07:46;;;;;;;0.70;0.70;;;;;;;;;;5017709;28;20234;-77
2024/03/09 01:10:12;;;;;;;0.53;0.53;;;;;;;;;;5034723;28;20240;-78
2024/03/09 01:12:39;;;;;;;1.23;1.13;;;;;;;;;;5027740;28;20234;-78
2024/03/09 01:15:07;;;;;;;0.50;0.50;;;;;;;;;;5012353;28;20228;-77
2024/03/09 01:17:36;;;;;;;1.37;1.27;;;;;;;;;;5030692;28;20234;-78
2024/03/09 01:20:06;;;;;;;0.30;0.30;;;;;;;;;;5031986;28;20283;-78
2024/03/09 01:22:33;;;;;;;0.63;0.63;;;;;;;;;;5012280;28;20225;-78
2024/03/09 01:25:00;;;;;;;0.30;0.30;;;;;;;;;;5008849;28;20227;-79
2024/03/09 01:27:26;;;;;;;0.57;0.57;;;;;;;;;;5027861;28;20769;-78
2024/03/09 01:29:59;;;;;;;0.97;0.83;;;;;;;;;;5029817;28;20239;-78
2024/03/09 01:32:25;;;;;;;0.40;0.40;;;;;;;;;;5018331;28;20274;-78
2024/03/09 01:34:53;;;;;;;0.43;0.43;;;;;;;;;;5030014;28;20318;-78
2024/03/09 01:37:21;;;;;;;0.30;0.30;;;;;;;;;;5011270;28;20243;-78
2024/03/09 01:39:49;;;;;;;0.40;0.40;;;;;;;;;;5030508;28;20716;-78
2024/03/09 01:42:21;;;;;;;0.80;0.77;;;;;;;;;;5029902;28;20232;-77
2024/03/09 01:44:49;;;;;;;0.30;0.30;;;;;;;;;;5010974;28;20281;-78
2024/03/09 01:47:18;;;;;;;0.47;0.47;;;;;;;;;;5015355;28;20247;-78
2024/03/09 01:49:45;;;;;;;0.40;0.40;;;;;;;;;;5012220;28;20228;-78
2024/03/09 01:52:13;;;;;;;0.53;0.53;;;;;;;;;;5008793;28;20810;-78
2024/03/09 01:54:44;;;;;;;12.27;0.93;;;;;;;;;;5006941;28;20235;-80
2024/03/09 01:57:13;;;;;;;0.70;0.70;;;;;;;;;;5025282;28;20668;-78
2024/03/09 01:59:46;;;;;;;0.30;0.30;;;;;;;;;;5030018;28;20289;-77
2024/03/09 02:02:13;;;;;;;2.03;0.70;;;;;;;;;;5023387;28;20235;-77
2024/03/09 02:04:41;;;;;;;0.60;0.60;;;;;;;;;;5008174;28;20622;-77
2024/03/09 02:07:07;;;;;;;1.43;1.33;;;;;;;;;;5012480;28;21143;-78
2024/03/09 02:09:34;;;;;;;0.40;0.40;;;;;;;;;;5020133;28;20227;-78
2024/03/09 02:12:05;;;;;;;0.50;0.50;;;;;;;;;;5020539;28;20286;-78
2024/03/09 02:14:33;;;;;;;1.00;1.00;;;;;;;;;;5028825;28;20582;-78
2024/03/09 02:17:05;;;;;;;0.63;0.63;;;;;;;;;;5019256;28;20235;-77
2024/03/09 02:19:41;;;;;;;0.50;0.50;;;;;;;;;;5009965;28;20653;-77
2024/03/09 02:22:10;;;;;;;1.47;1.47;;;;;;;;;;5028344;28;20597;-78
2024/03/09 02:24:40;;;;;;;0.30;0.30;;;;;;;;;;5024790;28;20222;-77
2024/03/09 02:27:07;;;;;;;0.57;0.57;;;;;;;;;;5025758;28;20242;-78
2024/03/09 02:29:34;;;;;;;0.30;0.30;;;;;;;;;;5014997;28;20719;-78
2024/03/09 02:32:01;;;;;;;1.37;1.03;;;;;;;;;;5030098;28;20228;-77
2024/03/09 02:34:28;;;;;;;2.60;1.53;;;;;;;;;;5025864;28;20238;-77
2024/03/09 02:36:55;;;;;;;0.47;0.47;;;;;;;;;;5025980;28;20255;-77
2024/03/09 02:39:23;;;;;;;0.40;0.40;;;;;;;;;;5019732;28;20236;-77
2024/03/09 02:41:50;;;;;;;0.30;0.30;;;;;;;;;;5012577;28;20778;-77
2024/03/09 02:44:17;;;;;;;0.30;0.30;;;;;;;;;;5028556;28;20232;-77
2024/03/09 02:46:44;;;;;;;2.00;0.77;;;;;;;;;;5027445;28;20238;-77
2024/03/09 02:49:10;;;;;;;0.50;0.50;;;;;;;;;;5027246;28;20259;-77
2024/03/09 02:51:37;;;;;;;0.73;0.73;;;;;;;;;;5013723;28;20231;-77
2024/03/09 02:54:04;;;;;;;1.47;1.47;;;;;;;;;;5010750;28;20736;-77
2024/03/09 02:56:32;;;;;;;1.00;0.93;;;;;;;;;;5002705;28;20228;-77
2024/03/09 02:58:59;;;;;;;0.93;0.93;;;;;;;;;;5024824;28;20709;-77
2024/03/09 03:01:26;;;;;;;1.07;1.07;;;;;;;;;;5017183;28;20282;-77
2024/03/09 03:03:58;;;;;;;0.67;0.67;;;;;;;;;;5000932;28;20790;-77
2024/03/09 03:06:27;;;;;;;0.43;0.43;;;;;;;;;;5020637;28;20294;-77
2024/03/09 03:08:59;;;;;;;0.50;0.50;;;;;;;;;;5023069;28;20235;-77
2024/03/09 03:11:25;;;;;;;0.63;0.63;;;;;;;;;;5019838;28;20290;-77
2024/03/09 03:13:54;;;;;;;0.53;0.53;;;;;;;;;;5005698;28;20259;-77
2024/03/09 03:16:31;;;;;;;0.30;0.30;;;;;;;;;;5021867;28;20232;-77
2024/03/09 03:18:59;;;;;;;0.53;0.53;;;;;;;;;;5013781;28;20239;-77
2024/03/09 03:21:27;;;;;;;1.33;1.23;;;;;;;;;;4997058;28;20224;-77
2024/03/09 03:23:53;;;;;;;0.40;0.40;;;;;;;;;;5015297;28;20224;-76
2024/03/09 03:26:21;;;;;;;1.80;1.13;;;;;;;;;;5016774;28;20234;-77
2024/03/09 03:28:49;;;;;;;0.97;0.97;;;;;;;;;;5022346;28;20249;-76
2024/03/09 03:31:18;;;;;;;0.90;0.90;;;;;;;;;;5015820;28;20724;-76
2024/03/09 03:33:47;;;;;;;2.90;1.13;;;;;;;;;;5021059;28;20236;-77
2024/03/09 03:36:17;;;;;;;1.13;1.13;;;;;;;;;;5021632;28;20220;-77
2024/03/09 03:38:46;;;;;;;0.50;0.50;;;;;;;;;;5010108;28;20247;-77
2024/03/09 03:41:14;;;;;;;1.60;1.03;;;;;;;;;;5018648;28;20748;-76
2024/03/09 03:43:42;;;;;;;0.57;0.57;;;;;;;;;;5004607;28;20307;-77
2024/03/09 03:46:11;;;;;;;0.60;0.60;;;;;;;;;;5006741;28;20656;-77
2024/03/09 03:48:44;;;;;;;0.80;0.63;;;;;;;;;;5026073;28;20238;-77
2024/03/09 03:51:12;;;;;;;0.30;0.30;;;;;;;;;;5010919;28;20282;-76
2024/03/09 03:53:40;;;;;;;0.60;0.60;;;;;;;;;;5025617;28;20306;-76
2024/03/09 03:56:09;;;;;;;0.50;0.50;;;;;;;;;;5023189;28;20238;-76
2024/03/09 03:58:37;;;;;;;0.60;0.60;;;;;;;;;;5023304;28;20232;-76
2024/03/09 04:01:05;;;;;;;0.40;0.40;;;;;;;;;;5027156;28;20738;-76
2024/03/09 04:03:32;;;;;;;0.60;0.60;;;;;;;;;;5019567;28;20307;-77
2024/03/09 04:06:00;;;;;;;0.53;0.53;;;;;;;;;;5017023;28;20231;-77
2024/03/09 04:08:27;;;;;;;0.70;0.70;;;;;;;;;;5026146;28;20606;-77
2024/03/09 04:10:57;;;;;;;1.07;1.07;;;;;;;;;;5010240;28;20227;-77
2024/03/09 04:13:24;;;;;;;0.57;0.57;;;;;;;;;;5024035;28;20227;-78
2024/03/09 04:15:52;;;;;;;0.80;0.77;;;;;;;;;;5018642;28;20231;-76
2024/03/09 04:18:21;;;;;;;2.10;1.27;;;;;;;;;;5026117;28;20248;-77
2024/03/09 04:20:48;;;;;;;0.63;0.63;;;;;;;;;;5007579;28;20240;-76
2024/03/09 04:23:18;;;;;;;0.53;0.43;;;;;;;;;;5027033;28;20236;-77
2024/03/09 04:25:46;;;;;;;0.63;0.50;;;;;;;;;;5010381;28;20611;-77
2024/03/09 04:28:20;;;;;;;0.60;0.60;;;;;;;;;;5027878;28;20287;-76
2024/03/09 04:30:48;;;;;;;0.50;0.50;;;;;;;;;;5008199;28;20230;-76
2024/03/09 04:33:15;;;;;;;1.10;0.90;;;;;;;;;;5025998;28;20231;-76
2024/03/09 04:35:42;;;;;;;0.83;0.83;;;;;;;;;;5008919;28;20228;-77
2024/03/09 04:38:13;;;;;;;0.40;0.40;;;;;;;;;;5009686;28;20232;-77
2024/03/09 04:40:48;;;;;;;1.63;1.57;;;;;;;;;;5017896;28;20235;-76
2024/03/09 04:43:16;;;;;;;2.20;1.90;;;;;;;;;;5024941;28;20238;-77
2024/03/09 04:45:43;;;;;;;1.43;0.77;;;;;;;;;;5003814;28;20311;-77
2024/03/09 04:48:11;;;;;;;0.87;0.87;;;;;;;;;;5026189;28;20235;-76
2024/03/09 04:50:46;;;;;;;1.33;0.53;;;;;;;;;;5022877;28;20259;-77
2024/03/09 04:53:15;;;;;;;0.60;0.60;;;;;;;;;;5025110;28;20322;-78
2024/03/09 04:55:47;;;;;;;0.73;0.73;;;;;;;;;;5007578;28;20240;-77
2024/03/09 04:58:16;;;;;;;1.07;1.07;;;;;;;;;;5010050;28;20322;-77
2024/03/09 05:00:43;;;;;;;0.50;0.50;;;;;;;;;;5017851;28;20234;-78
2024/03/09 05:03:17;;;;;;;0.60;0.60;;;;;;;;;;5006122;28;20228;-77
2024/03/09 05:05:44;;;;;;;1.83;1.77;;;;;;;;;;5009750;28;20227;-77
2024/03/09 05:08:10;;;;;;;0.40;0.40;;;;;;;;;;5009215;28;20240;-77
2024/03/09 05:10:37;;;;;;;0.30;0.30;;;;;;;;;;5014520;28;20224;-77
2024/03/09 05:13:06;;;;;;;2.00;1.03;;;;;;;;;;5026148;28;20272;-77
2024/03/09 05:15:35;;;;;;;2.70;2.50;;;;;;;;;;5025914;28;20235;-75
2024/03/09 05:18:03;;;;;;;1.90;1.20;;;;;;;;;;5025425;28;20231;-77
2024/03/09 05:20:30;;;;;;;2.10;0.90;;;;;;;;;;5009773;28;20227;-77
2024/03/09 05:22:59;;;;;;;0.70;0.70;;;;;;;;;;5008810;28;20235;-77
2024/03/09 05:25:26;;;;;;;0.77;0.77;;;;;;;;;;5013531;28;20236;-77
2024/03/09 05:27:54;;;;;;;1.37;1.23;;;;;;;;;;5012502;28;20279;-76
2024/03/09 05:30:23;;;;;;;0.70;0.70;;;;;;;;;;5030779;28;20239;-76
2024/03/09 05:33:06;;;;;;;1.20;1.10;;;;;;;;;;5029348;28;20803;-77
2024/03/09 05:35:34;;;;;;;0.53;0.53;;;;;;;;;;5029890;28;20239;-76
2024/03/09 05:38:05;;;;;;;0.50;0.50;;;;;;;;;;5020129;28;20606;-77
2024/03/09 05:40:33;;;;;;;0.57;0.57;;;;;;;;;;5024801;28;20228;-77
2024/03/09 05:43:06;;;;;;;1.03;1.03;;;;;;;;;;5007602;28;20228;-77
2024/03/09 05:45:35;;;;;;;0.37;0.37;;;;;;;;;;5011773;28;20660;-76
2024/03/09 05:48:02;;;;;;;0.40;0.40;;;;;;;;;;5031170;28;20239;-77
2024/03/09 05:50:29;;;;;;;1.37;1.13;;;;;;;;;;5013744;28;20289;-77
2024/03/09 05:52:58;;;;;;;0.73;0.73;;;;;;;;;;5029809;28;20228;-76
2024/03/09 05:55:25;;;;;;;0.50;0.50;;;;;;;;;;5020336;28;20236;-77
2024/03/09 05:57:54;;;;;;;0.77;0.77;;;;;;;;;;5010757;28;20264;-76
2024/03/09 06:00:27;;;;;;;1.33;0.83;;;;;;;;;;5008439;28;20925;-77
2024/03/09 06:02:56;;;;;;;2.20;2.10;;;;;;;;;;5027753;28;20242;-76
2024/03/09 06:05:28;;;;;;;1.17;1.07;;;;;;;;;;5027872;28;20220;-76
2024/03/09 06:07:55;;;;;;;0.40;0.40;;;;;;;;;;5029220;28;20224;-77
2024/03/09 06:10:24;;;;;;;0.83;0.83;;;;;;;;;;5029015;28;20224;-77
2024/03/09 06:12:54;;;;;;;0.87;0.87;;;;;;;;;;5011146;28;20324;-76
2024/03/09 06:15:22;;;;;;;0.50;0.50;;;;;;;;;;5012716;28;20244;-77
2024/03/09 06:17:55;;;;;;;1.53;1.13;;;;;;;;;;5028349;28;20239;-77
2024/03/09 06:20:26;;;;;;;2.10;0.83;;;;;;;;;;5028674;28;20228;-77
2024/03/09 06:22:54;;;;;;;1.83;1.73;;;;;;;;;;5024978;28;20259;-77
2024/03/09 06:25:25;;;;;;;1.30;1.27;;;;;;;;;;5029995;28;20262;-77
2024/03/09 06:27:53;;;;;;;0.50;0.50;;;;;;;;;;5020630;28;20255;-77
2024/03/09 06:30:22;;;;;;;0.57;0.57;;;;;;;;;;5025960;28;20232;-76
2024/03/09 06:32:57;;;;;;;0.83;0.83;;;;;;;;;;5027923;28;20811;-77
2024/03/09 06:35:28;;;;;;;0.40;0.40;;;;;;;;;;5022533;28;20236;-75
2024/03/09 06:38:05;;;;;;;0.97;0.90;;;;;;;;;;5024836;28;20303;-76
2024/03/09 06:40:36;;;;;;;0.37;0.37;;;;;;;;;;5027813;28;20236;-76
2024/03/09 06:43:10;;;;;;;0.57;0.57;;;;;;;;;;5025031;28;20609;-77
2024/03/09 06:45:39;;;;;;;3.70;1.77;;;;;;;;;;5027117;28;20588;-76
2024/03/09 06:48:07;;;;;;;0.93;0.87;;;;;;;;;;5018219;28;20267;-76
2024/03/09 06:50:35;;;;;;;0.50;0.50;;;;;;;;;;5003992;28;20278;-76
2024/03/09 06:53:01;;;;;;;1.33;1.27;;;;;;;;;;5011019;28;20224;-76
2024/03/09 06:55:31;;;;;;;0.93;0.93;;;;;;;;;;5010094;28;20712;-76
2024/03/09 06:58:01;;;;;;;0.80;0.80;;;;;;;;;;5027965;28;20224;-76
2024/03/09 07:00:30;;;;;;;0.63;0.63;;;;;;;;;;5015043;28;20261;-77
2024/03/09 07:02:58;;;;;;;0.60;0.47;;;;;;;;;;5009232;28;20238;-77
2024/03/09 07:05:30;;;;;;;0.63;0.63;;;;;;;;;;5007953;28;20232;-77
2024/03/09 07:08:01;;;;;;;0.50;0.50;;;;;;;;;;5026722;28;20286;-76
2024/03/09 07:10:28;;;;;;;4.83;1.47;;;;;;;;;;5004344;28;20273;-77
2024/03/09 07:12:56;;;;;;;0.60;0.60;;;;;;;;;;5007779;28;20259;-77
2024/03/09 07:15:26;;;;;;;0.30;0.30;;;;;;;;;;5007011;28;20712;-76
2024/03/09 07:17:55;;;;;;;0.60;0.60;;;;;;;;;;5027162;28;20243;-76
2024/03/09 07:20:32;;;;;;;1.90;1.47;;;;;;;;;;5025315;28;20228;-76
2024/03/09 07:22:58;;;;;;;1.67;1.57;;;;;;;;;;5018187;28;20740;-76
2024/03/09 07:25:26;;;;;;;0.33;0.33;;;;;;;;;;5028088;28;20298;-76
2024/03/09 07:27:55;;;;;;;0.60;0.60;;;;;;;;;;5018479;28;20278;-76
2024/03/09 07:30:22;;;;;;;0.93;0.70;;;;;;;;;;5028955;28;20220;-77
2024/03/09 07:32:49;;;;;;;0.40;0.40;;;;;;;;;;5007835;28;20228;-76
2024/03/09 07:35:18;;;;;;;1.03;0.57;;;;;;;;;;5007105;28;20791;-77
2024/03/09 07:37:47;;;;;;;1.10;1.10;;;;;;;;;;5026136;28;20239;-76
2024/03/09 07:40:16;;;;;;;0.50;0.50;;;;;;;;;;5009765;28;20235;-76
2024/03/09 07:42:43;;;;;;;1.37;1.27;;;;;;;;;;5024612;28;20220;-76
2024/03/09 07:45:13;;;;;;;1.37;1.27;;;;;;;;;;5027077;28;20234;-76
2024/03/09 07:47:41;;;;;;;1.60;0.87;;;;;;;;;;5027079;28;20241;-76
2024/03/09 07:50:20;;;;;;;0.77;0.77;;;;;;;;;;5006698;28;20336;-76
2024/03/09 07:52:48;;;;;;;0.50;0.50;;;;;;;;;;5028683;28;20228;-78
2024/03/09 07:55:17;;;;;;;0.60;0.60;;;;;;;;;;5028305;28;20235;-76
2024/03/09 07:57:54;;;;;;;1.80;0.70;;;;;;;;;;5024126;28;20323;-79
2024/03/09 08:00:39;;;;;;;0.40;0.40;;;;;;;;;;5011382;28;20338;-77
2024/03/09 08:03:05;;;;;;;0.87;0.87;;;;;;;;;;5017601;28;20232;-76
2024/03/09 08:05:32;;;;;;;0.60;0.60;;;;;;;;;;5018192;28;20227;-76
2024/03/09 08:08:02;;;;;;;0.77;0.77;;;;;;;;;;5007506;28;20233;-78
2024/03/09 08:10:30;;;;;;;0.30;0.30;;;;;;;;;;5025625;28;20220;-73
2024/03/09 08:12:57;;;;;;;0.60;0.60;;;;;;;;;;5001819;28;20232;-74
2024/03/09 08:15:28;;;;;;;3.50;1.33;;;;;;;;;;5024466;28;20710;-74
2024/03/09 08:17:56;;;;;;;0.40;0.40;;;;;;;;;;5011495;28;20619;-74
2024/03/09 08:20:23;;;;;;;0.50;0.50;;;;;;;;;;5001249;28;20323;-74
2024/03/09 08:22:49;;;;;;;0.30;0.30;;;;;;;;;;5018104;28;20234;-76
2024/03/09 08:25:17;;;;;;;1.60;1.23;;;;;;;;;;5016428;28;20228;-73
2024/03/09 08:27:45;;;;;;;1.90;1.80;;;;;;;;;;5022105;28;20322;-74
2024/03/09 08:30:14;;;;;;;0.83;0.83;;;;;;;;;;5019512;28;20286;-74
2024/03/09 08:32:44;;;;;;;0.30;0.30;;;;;;;;;;5007540;28;20270;-74
2024/03/09 08:35:14;;;;;;;0.83;0.83;;;;;;;;;;5004980;28;20268;-74
2024/03/09 08:37:41;;;;;;;0.30;0.30;;;;;;;;;;5019315;28;20278;-74
2024/03/09 08:40:09;;;;;;;0.40;0.40;;;;;;;;;;5001023;28;20715;-74
2024/03/09 08:42:36;;;;;;;0.30;0.30;;;;;;;;;;5015498;28;20293;-75
2024/03/09 08:45:09;;;;;;;0.40;0.40;;;;;;;;;;4993593;28;20880;-74
2024/03/09 08:47:36;;;;;;;0.40;0.40;;;;;;;;;;5004759;28;20297;-74
2024/03/09 08:50:04;;;;;;;3.03;0.70;;;;;;;;;;5019859;28;20228;-75
2024/03/09 08:52:33;;;;;;;0.30;0.30;;;;;;;;;;5011304;28;20227;-74
2024/03/09 08:54:59;;;;;;;0.30;0.30;;;;;;;;;;4987217;28;20316;-74
2024/03/09 08:57:29;;;;;;;0.30;0.30;;;;;;;;;;4997077;28;20692;-74
2024/03/09 08:59:59;;;;;;;0.30;0.30;;;;;;;;;;4997126;28;20743;-74
2024/03/09 09:02:29;;;;;;;0.40;0.40;;;;;;;;;;5025125;28;20224;-75
2024/03/09 09:04:56;;;;;;;0.50;0.50;;;;;;;;;;5025589;28;20224;-74
2024/03/09 09:07:23;;;;;;;0.30;0.30;;;;;;;;;;5023467;28;20231;-74
2024/03/09 09:09:50;;;;;;;0.30;0.30;;;;;;;;;;5005152;28;20247;-74
2024/03/09 09:12:17;;;;;;;0.30;0.30;;;;;;;;;;5000580;28;20231;-74
2024/03/09 09:14:44;;;;;;;0.80;0.80;;;;;;;;;;4995272;28;20337;-76
2024/03/09 09:17:12;;;;;;;0.50;0.50;;;;;;;;;;5022834;28;20799;-74
2024/03/09 09:19:38;;;;;;;1.27;1.17;;;;;;;;;;5004648;28;20315;-74
2024/03/09 09:22:06;;;;;;;0.30;0.30;;;;;;;;;;5013344;28;20405;-74
2024/03/09 09:24:33;;;;;;;0.30;0.30;;;;;;;;;;5017793;28;20228;-76
2024/03/09 09:27:00;;;;;;;0.30;0.30;;;;;;;;;;5018589;28;20311;-74
2024/03/09 09:29:29;;;;;;;0.50;0.50;;;;;;;;;;5017499;28;20224;-75
2024/03/09 09:31:56;;;;;;;0.50;0.50;;;;;;;;;;4997476;28;20227;-77
2024/03/09 09:34:23;;;;;;;0.57;0.57;;;;;;;;;;5024779;28;20251;-77
2024/03/09 09:36:52;;;;;;;0.30;0.30;;;;;;;;;;5019304;28;20223;-78
2024/03/09 09:39:24;;;;;;;0.40;0.40;;;;;;;;;;5006092;28;20236;-80
2024/03/09 09:41:57;;;;;;;0.53;0.53;;;;;;;;;;5024644;28;20224;-78
2024/03/09 09:44:26;;;;;;;1.40;1.30;;;;;;;;;;5019665;28;20256;-77
2024/03/09 09:46:55;;;;;;;0.33;0.33;;;;;;;;;;5004813;28;20316;-77
2024/03/09 09:49:22;;;;;;;0.93;0.93;;;;;;;;;;5019700;28;20368;-77
2024/03/09 09:51:53;;;;;;;1.57;1.47;;;;;;;;;;5023903;28;20311;-77
2024/03/09 09:54:26;;;;;;;0.73;0.73;;;;;;;;;;5008924;28;20792;-77
2024/03/09 09:56:54;;;;;;;0.80;0.80;;;;;;;;;;5020323;28;20232;-77
2024/03/09 09:59:24;;;;;;;0.93;0.87;;;;;;;;;;5019461;28;20852;-77
2024/03/09 10:01:51;;;;;;;1.70;0.83;;;;;;;;;;5003076;28;20221;-77
2024/03/09 10:04:17;;;;;;;0.47;0.47;;;;;;;;;;5008027;28;20231;-77
2024/03/09 10:06:46;;;;;;;0.83;0.83;;;;;;;;;;5019243;28;20228;-77
2024/03/09 10:09:30;;;;;;;0.40;0.40;;;;;;;;;;5021035;28;20234;-77
2024/03/09 10:12:03;;;;;;;0.60;0.60;;;;;;;;;;5022350;28;20256;-79
2024/03/09 10:14:30;;;;;;;0.87;0.87;;;;;;;;;;5023583;28;20228;-76
2024/03/09 10:17:06;;;;;;;0.60;0.50;;;;;;;;;;5023755;28;20240;-77
2024/03/09 10:19:37;;;;;;;0.57;0.57;;;;;;;;;;5025302;28;20227;-77
2024/03/09 10:22:04;;;;;;;1.03;1.03;;;;;;;;;;5025827;28;20224;-76
2024/03/09 10:24:31;;;;;;;1.50;1.43;;;;;;;;;;5008651;28;20639;-76
2024/03/09 10:27:05;;;;;;;0.50;0.50;;;;;;;;;;5014485;28;20236;-76
2024/03/09 10:29:32;;;;;;;1.07;1.07;;;;;;;;;;5020277;28;20596;-78
2024/03/09 10:32:00;;;;;;;1.40;1.30;;;;;;;;;;5022120;28;20224;-76
2024/03/09 10:34:30;;;;;;;0.93;0.83;;;;;;;;;;5005541;28;20235;-77
2024/03/09 10:37:00;;;;;;;0.60;0.60;;;;;;;;;;5007470;28;20236;-78
2024/03/09 10:39:27;;;;;;;1.20;1.20;;;;;;;;;;5019046;28;20230;-76
2024/03/09 10:41:54;;;;;;;0.40;0.40;;;;;;;;;;5024628;28;20232;-76
2024/03/09 10:44:23;;;;;;;0.43;0.43;;;;;;;;;;5023001;28;20220;-77
2024/03/09 10:46:53;;;;;;;1.30;1.20;;;;;;;;;;5016134;28;20224;-77
2024/03/09 10:49:21;;;;;;;1.17;1.17;;;;;;;;;;5006505;28;20659;-77
2024/03/09 10:51:51;;;;;;;2.67;1.27;;;;;;;;;;5021971;28;20231;-77
2024/03/09 10:54:33;;;;;;;1.00;1.00;;;;;;;;;;5006026;28;20724;-77
2024/03/09 10:57:02;;;;;;;2.53;1.27;;;;;;;;;;5018513;28;20245;-77
2024/03/09 10:59:30;;;;;;;0.70;0.70;;;;;;;;;;5014710;28;20724;-76
2024/03/09 11:02:00;;;;;;;0.90;0.83;;;;;;;;;;4996505;28;20227;-77
2024/03/09 11:04:28;;;;;;;1.13;1.13;;;;;;;;;;5015129;28;20738;-77
2024/03/09 11:06:55;;;;;;;1.03;0.67;;;;;;;;;;5024196;28;20254;-77
2024/03/09 11:09:29;;;;;;;3.30;0.77;;;;;;;;;;5019881;28;20231;-81
2024/03/09 11:11:59;;;;;;;0.40;0.40;;;;;;;;;;5013980;28;20318;-78
2024/03/09 11:14:27;;;;;;;0.90;0.90;;;;;;;;;;5021207;28;20235;-77
2024/03/09 11:17:00;;;;;;;0.40;0.40;;;;;;;;;;5000234;28;20627;-79
2024/03/09 11:19:27;;;;;;;0.57;0.57;;;;;;;;;;5016170;28;20220;-77
2024/03/09 11:21:54;;;;;;;0.30;0.30;;;;;;;;;;5014096;28;20224;-77
2024/03/09 11:24:29;;;;;;;0.70;0.70;;;;;;;;;;5015054;28;20238;-77
2024/03/09 11:26:57;;;;;;;1.40;1.35;;;;;;;;;;5014985;28;20239;-77
2024/03/09 11:29:38;;;;;;;0.80;0.80;;;;;;;;;;4991158;28;20318;-77
2024/03/09 11:32:11;;;;;;;1.00;1.00;;;;;;;;;;5020988;28;20227;-77
2024/03/09 11:34:38;;;;;;;1.05;0.95;;;;;;;;;;5020196;28;20243;-79
2024/03/09 11:37:08;;;;;;;0.82;0.82;;;;;;;;;;4998561;28;20236;-77
2024/03/09 11:39:36;;;;;;;0.90;0.90;;;;;;;;;;5001216;28;20228;-79
2024/03/09 11:42:08;;;;;;;0.47;0.47;;;;;;;;;;5006092;28;20236;-78
2024/03/09 11:44:39;;;;;;;0.60;0.60;;;;;;;;;;5004235;28;20228;-77
2024/03/09 11:47:06;;;;;;;0.68;0.68;;;;;;;;;;5018140;28;20243;-77
2024/03/09 11:49:34;;;;;;;0.90;0.90;;;;;;;;;;5001533;28;20713;-78
2024/03/09 11:52:05;;;;;;;1.02;1.02;;;;;;;;;;5007196;28;20328;-77
2024/03/09 11:54:32;;;;;;;6.25;2.33;;;;;;;;;;5022383;28;20669;-77
2024/03/09 11:56:59;;;;;;;0.73;0.73;;;;;;;;;;5009755;28;20652;-78
2024/03/09 11:59:26;;;;;;;1.55;1.45;;;;;;;;;;5017533;28;20259;-78
2024/03/09 12:02:04;;;;;;;0.90;0.90;;;;;;;;;;5013014;28;20752;-77
2024/03/09 12:04:32;;;;;;;0.60;0.60;;;;;;;;;;5005964;28;20582;-77
2024/03/09 12:07:00;;;;;;;0.93;0.93;;;;;;;;;;5007425;28;20756;-78
2024/03/09 12:09:29;;;;;;;1.38;1.30;;;;;;;;;;5011057;28;20231;-77
2024/03/09 12:11:55;;;;;;;0.82;0.82;;;;;;;;;;5003523;28;20314;-77
2024/03/09 12:14:22;;;;;;;1.40;1.38;;;;;;;;;;5008494;28;20223;-78
2024/03/09 12:16:49;;;;;;;0.70;0.70;;;;;;;;;;5011280;28;20224;-77
2024/03/09 12:19:17;;;;;;;1.60;0.85;;;;;;;;;;5004406;28;20228;-77
2024/03/09 12:21:44;;;;;;;0.98;0.75;;;;;;;;;;5003168;28;20231;-77
2024/03/09 12:24:12;;;;;;;0.77;0.77;;;;;;;;;;5020881;28;20220;-77
2024/03/09 12:26:39;;;;;;;1.27;1.17;;;;;;;;;;5023505;28;20311;-78
2024/03/09 12:29:07;;;;;;;0.75;0.75;;;;;;;;;;5007510;28;20239;-77
2024/03/09 12:31:34;;;;;;;0.88;0.85;;;;;;;;;;5018989;28;20590;-78
2024/03/09 12:34:05;;;;;;;1.70;0.90;;;;;;;;;;5003026;28;20250;-79
2024/03/09 12:36:33;;;;;;;1.17;1.17;;;;;;;;;;5018874;28;20302;-77
2024/03/09 12:39:16;;;;;;;0.80;0.80;;;;;;;;;;5022552;28;20254;-77
2024/03/09 12:41:52;;;;;;;1.55;1.20;;;;;;;;;;5007044;28;20228;-77
2024/03/09 12:44:20;;;;;;;2.88;1.42;;;;;;;;;;5025050;28;20223;-77
2024/03/09 12:46:48;;;;;;;0.82;0.82;;;;;;;;;;5021749;28;20239;-77
2024/03/09 12:49:15;;;;;;;0.47;0.47;;;;;;;;;;5006706;28;20239;-77
2024/03/09 12:51:48;;;;;;;0.40;0.40;;;;;;;;;;5023312;28;20282;-77
2024/03/09 12:54:17;;;;;;;0.50;0.50;;;;;;;;;;5025551;28;20236;-77
2024/03/09 12:56:47;;;;;;;1.10;1.00;;;;;;;;;;5019528;28;20236;-77
2024/03/09 12:59:20;;;;;;;0.88;0.88;;;;;;;;;;5027513;28;20656;-77
2024/03/09 13:01:50;;;;;;;1.08;1.08;;;;;;;;;;5025420;28;20643;-78
2024/03/09 13:04:19;;;;;;;1.38;1.27;;;;;;;;;;5008523;28;20228;-77
2024/03/09 13:06:45;;;;;;;1.05;1.05;;;;;;;;;;5015534;28;20521;-77
2024/03/09 13:09:14;;;;;;;0.60;0.60;;;;;;;;;;5023803;28;20228;-77
2024/03/09 13:11:42;;;;;;;1.05;1.05;;;;;;;;;;5026501;28;20578;-77
2024/03/09 13:14:09;;;;;;;1.98;1.15;;;;;;;;;;5014282;28;20245;-77
2024/03/09 13:16:40;;;;;;;0.73;0.73;;;;;;;;;;5000814;28;21194;-77
2024/03/09 13:19:09;;;;;;;0.80;0.80;;;;;;;;;;5025025;28;20348;-77
2024/03/09 13:21:37;;;;;;;0.60;0.60;;;;;;;;;;5018460;28;20223;-78
2024/03/09 13:24:08;;;;;;;0.55;0.55;;;;;;;;;;5020699;28;20323;-78
2024/03/09 13:26:35;;;;;;;0.57;0.57;;;;;;;;;;5016362;28;20230;-77
2024/03/09 13:29:01;;;;;;;0.77;0.77;;;;;;;;;;5010081;28;20255;-77
2024/03/09 13:31:31;;;;;;;0.63;0.63;;;;;;;;;;5027697;28;20783;-77
2024/03/09 13:33:59;;;;;;;0.60;0.60;;;;;;;;;;5013539;28;20243;-77
2024/03/09 13:36:26;;;;;;;0.57;0.57;;;;;;;;;;5023456;28;20228;-78
2024/03/09 13:38:53;;;;;;;0.50;0.50;;;;;;;;;;5014218;28;20228;-76
2024/03/09 13:41:20;;;;;;;2.55;1.95;;;;;;;;;;5017344;28;20228;-76
2024/03/09 13:43:47;;;;;;;0.60;0.60;;;;;;;;;;5020466;28;20232;-75
2024/03/09 13:46:14;;;;;;;1.10;1.10;;;;;;;;;;5029899;28;20228;-76
2024/03/09 13:48:42;;;;;;;0.50;0.50;;;;;;;;;;5008968;28;20738;-76
2024/03/09 13:51:15;;;;;;;0.40;0.40;;;;;;;;;;5024903;28;20266;-76
2024/03/09 13:53:43;;;;;;;0.45;0.45;;;;;;;;;;5028905;28;20654;-78
2024/03/09 13:56:28;;;;;;;0.47;0.47;;;;;;;;;;5008639;28;20791;-76
2024/03/09 13:58:55;;;;;;;0.28;0.28;;;;;;;;;;5029679;28;20235;-76
2024/03/09 14:01:22;;;;;;;0.30;0.30;;;;;;;;;;5029114;28;20720;-76
2024/03/09 14:03:49;;;;;;;0.43;0.43;;;;;;;;;;5031277;28;20216;-76
2024/03/09 14:06:19;;;;;;;0.57;0.57;;;;;;;;;;5012656;28;20228;-76
2024/03/09 14:08:46;;;;;;;0.40;0.40;;;;;;;;;;5013161;28;20228;-76
2024/03/09 14:11:16;;;;;;;0.82;0.82;;;;;;;;;;5027425;28;20592;-76
2024/03/09 14:13:44;;;;;;;0.90;0.90;;;;;;;;;;5028369;28;20228;-76
2024/03/09 14:16:13;;;;;;;0.63;0.63;;;;;;;;;;5028021;28;20306;-77
2024/03/09 14:18:49;;;;;;;0.70;0.70;;;;;;;;;;5029817;28;20623;-78
2024/03/09 14:21:24;;;;;;;2.38;0.77;;;;;;;;;;5012797;28;20220;-79
2024/03/09 14:23:52;;;;;;;0.30;0.30;;;;;;;;;;5029834;28;20227;-76
2024/03/09 14:26:24;;;;;;;0.40;0.40;;;;;;;;;;5027965;28;20232;-77
2024/03/09 14:28:54;;;;;;;0.50;0.50;;;;;;;;;;5008816;28;20260;-77
2024/03/09 14:31:22;;;;;;;0.30;0.30;;;;;;;;;;5025051;28;20572;-76
2024/03/09 14:33:48;;;;;;;0.60;0.60;;;;;;;;;;5012693;28;20230;-75
2024/03/09 14:36:18;;;;;;;1.95;0.88;;;;;;;;;;5015941;28;20232;-76
2024/03/09 14:38:45;;;;;;;0.47;0.47;;;;;;;;;;5028550;28;20238;-75
2024/03/09 14:41:14;;;;;;;0.82;0.68;;;;;;;;;;5012033;28;20228;-75
2024/03/09 14:43:46;;;;;;;1.40;0.93;;;;;;;;;;5023929;28;20672;-76
2024/03/09 14:46:12;;;;;;;0.40;0.40;;;;;;;;;;5024352;28;20224;-76
2024/03/09 14:48:40;;;;;;;0.45;0.45;;;;;;;;;;5009771;28;20236;-76
2024/03/09 14:51:09;;;;;;;1.48;1.20;;;;;;;;;;5011126;28;20299;-76
2024/03/09 14:53:39;;;;;;;0.35;0.35;;;;;;;;;;5032312;28;20660;-76